createdAt,value
2019-03-24T00:00:51.297Z,73.95
2019-03-24T00:03:19.578Z,74.38
2019-03-24T00:05:48.120Z,74.37
2019-03-24T00:08:16.541Z,73.17
2019-03-24T00:10:44.849Z,74.01
2019-03-24T00:13:13.374Z,74.63
2019-03-24T00:15:41.609Z,74.70
2019-03-24T00:18:10.274Z,75.33
2019-03-24T00:20:38.672Z,74.75
2019-03-24T00:23:07.213Z,75.12
2019-03-24T00:25:36.138Z,73.91
2019-03-24T00:28:04.777Z,73.90
2019-03-24T00:30:33.291Z,75.21
2019-03-24T00:33:02.011Z,75.91
2019-03-24T00:35:31.130Z,75.21
2019-03-24T00:37:59.509Z,74.26
2019-03-24T00:40:28.233Z,76.92
2019-03-24T00:42:57.620Z,74.65
2019-03-24T00:45:36.257Z,77.41
2019-03-24T00:47:55.688Z,74.53
2019-03-24T00:50:24.194Z,74.04
2019-03-24T00:52:52.195Z,76.72
2019-03-24T00:55:20.935Z,74.96
2019-03-24T00:57:49.472Z,73.96
2019-03-24T01:00:27.341Z,73.37
2019-03-24T01:02:55.886Z,73.32
2019-03-24T01:05:24.324Z,73.81
2019-03-24T01:07:53.650Z,73.39
2019-03-24T01:10:21.878Z,73.62
2019-03-24T01:12:50.497Z,73.87
2019-03-24T01:15:19.393Z,74.69
2019-03-24T01:17:47.662Z,75.86
2019-03-24T01:20:16.331Z,76.29
2019-03-24T01:22:45.363Z,75.16
2019-03-24T01:25:13.771Z,77.67
2019-03-24T01:27:42.276Z,76.98
2019-03-24T01:30:10.873Z,75.63
2019-03-24T01:32:39.068Z,74.61
2019-03-24T01:35:08.307Z,75.50
2019-03-24T01:37:37.004Z,75.69
2019-03-24T01:40:05.433Z,76.15
2019-03-24T01:42:33.971Z,74.62
2019-03-24T01:45:02.167Z,75.61
2019-03-24T01:47:30.551Z,77.25
2019-03-24T01:49:59.242Z,77.31
2019-03-24T01:52:27.929Z,77.40
2019-03-24T01:54:57.384Z,79.60
2019-03-24T01:57:27.852Z,77.45
2019-03-24T01:59:56.346Z,78.12
2019-03-24T02:02:25.248Z,77.31
2019-03-24T02:04:53.629Z,79.83
2019-03-24T02:07:22.569Z,78.62
2019-03-24T02:09:51.208Z,79.23
2019-03-24T02:12:19.467Z,78.44
2019-03-24T02:14:47.956Z,78.81
2019-03-24T02:17:16.390Z,80.44
2019-03-24T02:19:45.259Z,78.35
2019-03-24T02:22:13.598Z,79.72
2019-03-24T02:24:42.703Z,79.29
2019-03-24T02:27:11.611Z,78.03
2019-03-24T02:29:39.958Z,79.78
2019-03-24T02:32:09.532Z,77.78
2019-03-24T02:34:38.600Z,80.06
2019-03-24T02:37:06.825Z,79.97
2019-03-24T02:39:35.515Z,80.65
2019-03-24T02:42:04.356Z,79.92
2019-03-24T02:44:32.541Z,80.12
2019-03-24T02:47:01.302Z,78.97
2019-03-24T02:49:29.654Z,78.40
2019-03-24T02:51:58.103Z,79.00
2019-03-24T02:54:26.713Z,79.87
2019-03-24T02:56:55.128Z,79.19
2019-03-24T02:59:23.806Z,79.04
2019-03-24T03:01:52.475Z,78.91
2019-03-24T03:04:21.545Z,78.33
2019-03-24T03:06:50.099Z,80.68
2019-03-24T03:09:19.095Z,79.06
2019-03-24T03:11:47.565Z,80.48
2019-03-24T03:14:15.810Z,78.55
2019-03-24T03:16:44.517Z,77.78
2019-03-24T03:19:13.183Z,79.97
2019-03-24T03:21:42.115Z,81.62
2019-03-24T03:24:11.238Z,79.86
2019-03-24T03:26:39.692Z,79.10
2019-03-24T03:29:08.288Z,80.13
2019-03-24T03:31:36.634Z,79.01
2019-03-24T03:34:05.322Z,81.02
2019-03-24T03:36:34.334Z,81.51
2019-03-24T03:39:04.787Z,80.92
2019-03-24T03:41:33.461Z,79.31
2019-03-24T03:44:02.756Z,79.83
2019-03-24T03:46:31.240Z,81.98
2019-03-24T03:49:00.233Z,79.95
2019-03-24T03:51:28.852Z,80.25
2019-03-24T03:53:59.256Z,79.47
2019-03-24T03:56:27.857Z,80.02
2019-03-24T03:58:56.323Z,83.36
2019-03-24T04:01:24.461Z,82.52
2019-03-24T04:03:53.257Z,83.28
2019-03-24T04:06:21.675Z,81.14
2019-03-24T04:08:50.011Z,82.82
2019-03-24T04:11:18.245Z,82.52
2019-03-24T04:13:46.623Z,82.36
2019-03-24T04:16:15.254Z,81.23
2019-03-24T04:18:43.614Z,81.83
2019-03-24T04:21:11.645Z,82.37
2019-03-24T04:23:40.029Z,82.86
2019-03-24T04:26:08.267Z,81.56
2019-03-24T04:28:37.510Z,83.78
2019-03-24T04:31:06.450Z,81.40
2019-03-24T04:33:35.182Z,81.01
2019-03-24T04:36:03.843Z,82.49
2019-03-24T04:38:32.326Z,80.64
2019-03-24T04:41:00.705Z,82.26
2019-03-24T04:43:30.060Z,83.13
2019-03-24T04:45:58.882Z,81.16
2019-03-24T04:48:27.756Z,82.31
2019-03-24T04:50:56.231Z,81.34
2019-03-24T04:53:24.550Z,82.24
2019-03-24T04:55:53.208Z,81.50
2019-03-24T04:58:21.623Z,79.95
2019-03-24T05:00:50.485Z,82.05
2019-03-24T05:03:19.267Z,83.24
2019-03-24T05:05:48.030Z,82.44
2019-03-24T05:08:17.637Z,82.33
2019-03-24T05:10:46.210Z,81.51
2019-03-24T05:13:15.004Z,82.92
2019-03-24T05:15:43.660Z,82.11
2019-03-24T05:18:12.244Z,81.38
2019-03-24T05:20:41.558Z,82.08
2019-03-24T05:23:09.841Z,83.69
2019-03-24T05:25:38.558Z,83.02
2019-03-24T05:28:07.315Z,83.41
2019-03-24T05:30:36.861Z,82.43
2019-03-24T05:33:05.409Z,81.94
2019-03-24T05:35:33.668Z,81.32
2019-03-24T05:38:02.815Z,81.02
2019-03-24T05:40:31.693Z,82.39
2019-03-24T05:42:59.695Z,79.68
2019-03-24T05:45:27.685Z,79.61
2019-03-24T05:47:56.730Z,80.98
2019-03-24T05:50:27.103Z,80.89
2019-03-24T05:52:55.825Z,80.20
2019-03-24T05:55:25.021Z,80.35
2019-03-24T05:57:53.893Z,81.65
2019-03-24T06:00:23.086Z,80.20
2019-03-24T06:02:51.890Z,81.61
2019-03-24T06:05:20.100Z,84.08
2019-03-24T06:07:48.677Z,81.97
2019-03-24T06:10:17.025Z,83.01
2019-03-24T06:12:46.729Z,81.90
2019-03-24T06:15:18.186Z,83.24
2019-03-24T06:17:48.072Z,81.99
2019-03-24T06:20:16.772Z,82.06
2019-03-24T06:22:45.336Z,83.24
2019-03-24T06:25:14.220Z,82.65
2019-03-24T06:27:42.485Z,83.56
2019-03-24T06:30:13.000Z,82.16
2019-03-24T06:32:42.811Z,82.63
2019-03-24T06:35:11.290Z,83.33
2019-03-24T06:37:40.904Z,82.65
2019-03-24T06:40:10.334Z,81.93
2019-03-24T06:42:39.115Z,82.02
2019-03-24T06:45:08.917Z,82.79
2019-03-24T06:47:38.678Z,82.64
2019-03-24T06:50:07.339Z,82.44
2019-03-24T06:52:36.031Z,81.23
2019-03-24T06:55:05.117Z,81.37
2019-03-24T06:57:34.461Z,81.79
2019-03-24T07:00:03.719Z,80.97
2019-03-24T07:02:31.963Z,81.71
2019-03-24T07:05:00.582Z,81.31
2019-03-24T07:07:29.057Z,81.01
2019-03-24T07:09:57.536Z,81.23
2019-03-24T07:12:26.159Z,80.89
2019-03-24T07:14:54.652Z,80.86
2019-03-24T07:17:23.321Z,81.08
2019-03-24T07:19:51.727Z,79.98
2019-03-24T07:22:20.594Z,80.42
2019-03-24T07:24:48.952Z,79.27
2019-03-24T07:27:17.459Z,79.68
2019-03-24T07:29:46.077Z,79.75
2019-03-24T07:32:15.581Z,78.89
2019-03-24T07:34:44.176Z,78.19
2019-03-24T07:37:12.763Z,77.07
2019-03-24T07:39:41.329Z,76.74
2019-03-24T07:42:09.860Z,75.87
2019-03-24T07:44:39.221Z,74.87
2019-03-24T07:47:12.767Z,73.79
2019-03-24T07:49:41.716Z,74.61
2019-03-24T07:52:10.340Z,72.90
2019-03-24T07:54:39.373Z,72.70
2019-03-24T07:57:07.722Z,73.28
2019-03-24T07:59:36.505Z,71.00
2019-03-24T08:02:05.132Z,70.05
2019-03-24T08:04:35.016Z,69.27
2019-03-24T08:07:03.808Z,69.22
2019-03-24T08:09:32.148Z,67.40
2019-03-24T08:12:00.782Z,66.62
2019-03-24T08:14:28.912Z,66.53
2019-03-24T08:16:57.651Z,65.75
2019-03-24T08:19:25.997Z,64.09
2019-03-24T08:21:54.679Z,63.69
2019-03-24T08:24:22.997Z,63.79
2019-03-24T08:26:51.676Z,63.12
2019-03-24T08:29:20.154Z,62.02
2019-03-24T08:31:48.471Z,62.82
2019-03-24T08:34:16.889Z,60.77
2019-03-24T08:36:45.094Z,61.14
2019-03-24T08:39:13.176Z,61.04
2019-03-24T08:41:41.851Z,59.29
2019-03-24T08:44:10.370Z,57.75
2019-03-24T08:46:38.659Z,60.44
2019-03-24T08:49:07.286Z,58.00
2019-03-24T08:51:35.741Z,58.69
2019-03-24T08:54:04.195Z,56.11
2019-03-24T08:56:32.911Z,56.57
2019-03-24T08:59:01.516Z,55.15
2019-03-24T09:01:29.618Z,55.88
2019-03-24T09:03:57.972Z,53.21
2019-03-24T09:06:26.459Z,54.64
2019-03-24T09:08:54.991Z,55.01
2019-03-24T09:11:31.286Z,53.24
2019-03-24T09:13:55.042Z,53.52
2019-03-24T09:16:23.559Z,51.90
2019-03-24T09:18:53.131Z,53.17
2019-03-24T09:21:21.933Z,51.66
2019-03-24T09:23:50.488Z,52.19
2019-03-24T09:26:19.262Z,50.57
2019-03-24T09:28:47.871Z,51.13
2019-03-24T09:31:16.554Z,50.84
2019-03-24T09:33:45.031Z,49.49
2019-03-24T09:36:13.631Z,49.96
2019-03-24T09:38:42.511Z,51.69
2019-03-24T09:41:11.888Z,51.36
2019-03-24T09:43:40.569Z,49.58
2019-03-24T09:46:09.261Z,50.01
2019-03-24T09:48:37.588Z,48.79
2019-03-24T09:51:06.299Z,48.23
2019-03-24T09:53:35.314Z,47.45
2019-03-24T09:56:03.973Z,46.87
2019-03-24T09:58:32.211Z,47.43
2019-03-24T10:01:00.790Z,48.36
2019-03-24T10:03:29.741Z,47.31
2019-03-24T10:05:58.821Z,46.56
2019-03-24T10:08:27.349Z,45.35
2019-03-24T10:10:55.680Z,44.08
2019-03-24T10:13:24.205Z,44.15
2019-03-24T10:15:52.779Z,45.12
2019-03-24T10:18:21.142Z,43.40
2019-03-24T10:20:50.274Z,44.21
2019-03-24T10:23:19.537Z,44.12
2019-03-24T10:25:47.932Z,42.47
2019-03-24T10:28:16.849Z,43.21
2019-03-24T10:30:45.582Z,42.14
2019-03-24T10:33:13.779Z,40.83
2019-03-24T10:35:43.022Z,40.98
2019-03-24T10:38:11.360Z,40.47
2019-03-24T10:40:39.555Z,39.84
2019-03-24T10:43:07.740Z,40.13
2019-03-24T10:45:36.593Z,38.23
2019-03-24T10:48:04.876Z,39.34
2019-03-24T10:50:33.398Z,39.27
2019-03-24T10:53:02.231Z,36.90
2019-03-24T10:55:31.238Z,37.55
2019-03-24T10:58:00.126Z,37.99
2019-03-24T11:00:40.278Z,36.42
2019-03-24T11:03:08.861Z,36.98
2019-03-24T11:05:37.470Z,35.55
2019-03-24T11:08:05.880Z,33.93
2019-03-24T11:10:34.800Z,35.74
2019-03-24T11:13:03.500Z,35.63
2019-03-24T11:15:31.834Z,34.32
2019-03-24T11:18:00.061Z,33.32
2019-03-24T11:20:28.463Z,33.43
2019-03-24T11:22:56.681Z,32.89
2019-03-24T11:25:25.440Z,33.35
2019-03-24T11:27:54.480Z,32.39
2019-03-24T11:30:23.436Z,33.66
2019-03-24T11:32:51.667Z,33.28
2019-03-24T11:35:19.826Z,33.12
2019-03-24T11:37:48.023Z,33.58
2019-03-24T11:40:16.601Z,32.93
2019-03-24T11:42:44.842Z,31.35
2019-03-24T11:45:14.372Z,32.25
2019-03-24T11:47:43.147Z,32.54
2019-03-24T11:50:12.046Z,31.38
2019-03-24T11:52:40.766Z,31.69
2019-03-24T11:55:11.092Z,32.20
2019-03-24T11:57:39.649Z,31.89
2019-03-24T12:00:09.909Z,30.91
2019-03-24T12:02:38.842Z,30.68
2019-03-24T12:05:07.774Z,30.95
2019-03-24T12:07:36.132Z,30.27
2019-03-24T12:10:07.420Z,30.91
2019-03-24T12:12:36.138Z,32.62
2019-03-24T12:15:05.594Z,32.69
2019-03-24T12:17:34.298Z,30.75
2019-03-24T12:20:02.950Z,32.37
2019-03-24T12:22:31.472Z,33.48
2019-03-24T12:24:59.483Z,33.37
2019-03-24T12:27:27.697Z,33.17
2019-03-24T12:29:55.795Z,31.93
2019-03-24T12:32:24.395Z,32.13
2019-03-24T12:34:53.188Z,32.58
2019-03-24T12:37:22.021Z,33.34
2019-03-24T12:39:50.870Z,33.40
2019-03-24T12:42:19.619Z,33.10
2019-03-24T12:44:47.544Z,32.28
2019-03-24T12:47:16.496Z,33.16
2019-03-24T12:49:45.505Z,33.49
2019-03-24T12:52:14.395Z,33.18
2019-03-24T12:54:43.025Z,33.89
2019-03-24T12:57:11.515Z,32.89
2019-03-24T12:59:45.127Z,33.67
2019-03-24T13:02:14.009Z,34.56
2019-03-24T13:04:42.529Z,34.50
2019-03-24T13:07:11.076Z,34.46
2019-03-24T13:09:39.739Z,35.48
2019-03-24T13:12:08.396Z,35.75
2019-03-24T13:14:36.611Z,35.55
2019-03-24T13:17:05.443Z,35.03
2019-03-24T13:19:36.019Z,35.39
2019-03-24T13:22:04.870Z,35.63
2019-03-24T13:24:33.126Z,36.13
2019-03-24T13:27:02.195Z,35.41
2019-03-24T13:29:31.259Z,35.77
2019-03-24T13:31:59.938Z,35.11
2019-03-24T13:34:28.225Z,35.45
2019-03-24T13:36:56.562Z,35.73
2019-03-24T13:39:25.269Z,35.89
2019-03-24T13:41:53.883Z,36.16
2019-03-24T13:44:22.370Z,36.26
2019-03-24T13:46:51.473Z,35.82
2019-03-24T13:49:20.569Z,36.11
2019-03-24T13:51:49.108Z,35.79
2019-03-24T13:54:17.564Z,35.54
2019-03-24T13:56:46.483Z,36.47
2019-03-24T13:59:15.285Z,36.53
2019-03-24T14:01:43.641Z,36.69
2019-03-24T14:04:12.211Z,36.89
2019-03-24T14:06:40.593Z,37.57
2019-03-24T14:09:10.048Z,37.37
2019-03-24T14:11:39.813Z,37.89
2019-03-24T14:14:08.386Z,38.66
2019-03-24T14:16:36.966Z,38.96
2019-03-24T14:19:05.246Z,39.11
2019-03-24T14:21:34.071Z,39.53
2019-03-24T14:24:02.657Z,39.71
2019-03-24T14:26:30.890Z,39.88
2019-03-24T14:28:59.384Z,39.96
2019-03-24T14:31:27.659Z,40.40
2019-03-24T14:33:56.227Z,40.93
2019-03-24T14:36:25.197Z,41.15
2019-03-24T14:38:53.471Z,41.38
2019-03-24T14:41:21.910Z,42.08
2019-03-24T14:43:50.652Z,42.54
2019-03-24T14:46:19.197Z,42.89
2019-03-24T14:48:47.762Z,43.11
2019-03-24T14:51:16.348Z,43.36
2019-03-24T14:53:44.914Z,43.97
2019-03-24T14:56:15.138Z,44.17
2019-03-24T14:58:43.933Z,44.24
2019-03-24T15:01:12.289Z,44.15
2019-03-24T15:03:40.697Z,43.62
2019-03-24T15:06:11.124Z,43.49
2019-03-24T15:08:40.155Z,43.09
2019-03-24T15:11:08.960Z,43.13
2019-03-24T15:13:38.220Z,43.29
2019-03-24T15:16:07.534Z,43.45
2019-03-24T15:18:36.455Z,43.67
2019-03-24T15:21:06.153Z,43.57
2019-03-24T15:23:34.498Z,43.72
2019-03-24T15:26:03.115Z,43.83
2019-03-24T15:28:31.897Z,43.86
2019-03-24T15:31:00.797Z,43.67
2019-03-24T15:33:29.177Z,43.74
2019-03-24T15:35:57.880Z,43.84
2019-03-24T15:38:26.081Z,43.97
2019-03-24T15:40:54.596Z,44.29
2019-03-24T15:43:22.818Z,44.50
2019-03-24T15:45:52.309Z,44.62
2019-03-24T15:48:20.754Z,44.65
2019-03-24T15:50:49.591Z,45.05
2019-03-24T15:53:17.704Z,45.31
2019-03-24T15:55:46.066Z,45.11
2019-03-24T15:58:15.201Z,45.48
2019-03-24T16:00:47.238Z,44.96
2019-03-24T16:03:16.037Z,44.79
2019-03-24T16:05:45.797Z,44.37
2019-03-24T16:08:14.029Z,44.57
2019-03-24T16:10:42.263Z,44.66
2019-03-24T16:13:10.734Z,44.71
2019-03-24T16:15:40.096Z,44.51
2019-03-24T16:18:08.949Z,44.48
2019-03-24T16:20:37.150Z,44.58
2019-03-24T16:23:05.540Z,44.92
2019-03-24T16:25:33.956Z,44.91
2019-03-24T16:28:02.318Z,45.09
2019-03-24T16:30:30.952Z,45.25
2019-03-24T16:32:59.642Z,45.22
2019-03-24T16:35:27.974Z,45.21
2019-03-24T16:37:57.092Z,45.58
2019-03-24T16:40:26.427Z,45.67
2019-03-24T16:42:55.264Z,45.72
2019-03-24T16:45:23.492Z,45.90
2019-03-24T16:47:52.469Z,45.74
2019-03-24T16:50:20.796Z,46.17
2019-03-24T16:52:49.339Z,46.19
2019-03-24T16:55:17.704Z,46.26
2019-03-24T16:57:46.616Z,46.24
2019-03-24T17:00:15.254Z,46.23
2019-03-24T17:02:43.439Z,46.54
2019-03-24T17:05:12.283Z,46.44
2019-03-24T17:07:40.795Z,47.00
2019-03-24T17:10:09.834Z,46.53
2019-03-24T17:12:38.399Z,47.18
2019-03-24T17:15:07.897Z,47.04
2019-03-24T17:17:36.457Z,47.04
2019-03-24T17:20:05.024Z,47.42
2019-03-24T17:22:33.686Z,47.59
2019-03-24T17:25:02.219Z,47.54
2019-03-24T17:27:31.190Z,48.62
2019-03-24T17:29:59.568Z,48.65
2019-03-24T17:32:28.254Z,48.82
2019-03-24T17:34:56.947Z,49.16
2019-03-24T17:37:25.938Z,48.70
2019-03-24T17:39:54.580Z,48.99
2019-03-24T17:42:22.736Z,49.06
2019-03-24T17:44:50.817Z,49.04
2019-03-24T17:47:19.081Z,49.69
2019-03-24T17:49:48.719Z,49.04
2019-03-24T17:52:17.615Z,48.94
2019-03-24T17:54:45.730Z,49.40
2019-03-24T17:57:14.375Z,49.97
2019-03-24T17:59:43.485Z,50.04
2019-03-24T18:02:14.521Z,50.40
2019-03-24T18:04:42.617Z,50.54
2019-03-24T18:07:11.201Z,50.72
2019-03-24T18:09:39.786Z,52.26
2019-03-24T18:12:08.279Z,51.87
2019-03-24T18:14:36.674Z,52.09
2019-03-24T18:17:05.246Z,51.53
2019-03-24T18:19:33.968Z,52.59
2019-03-24T18:22:11.260Z,52.61
2019-03-24T18:24:32.958Z,52.42
2019-03-24T18:27:02.730Z,52.40
2019-03-24T18:29:31.256Z,52.47
2019-03-24T18:31:59.357Z,53.31
2019-03-24T18:34:27.833Z,53.52
2019-03-24T18:36:56.438Z,54.91
2019-03-24T18:39:25.764Z,54.04
2019-03-24T18:41:53.891Z,53.51
2019-03-24T18:44:22.571Z,53.80
2019-03-24T18:46:50.959Z,54.32
2019-03-24T18:49:19.888Z,54.34
2019-03-24T18:51:48.109Z,54.23
2019-03-24T18:54:16.201Z,55.03
2019-03-24T18:56:44.815Z,55.38
2019-03-24T18:59:15.084Z,56.25
2019-03-24T19:01:43.709Z,56.34
2019-03-24T19:04:11.959Z,56.22
2019-03-24T19:06:40.701Z,57.00
2019-03-24T19:09:09.512Z,57.29
2019-03-24T19:11:37.918Z,57.03
2019-03-24T19:14:06.320Z,56.70
2019-03-24T19:16:35.437Z,56.45
2019-03-24T19:19:04.790Z,56.89
2019-03-24T19:21:33.193Z,56.77
2019-03-24T19:24:02.059Z,56.69
2019-03-24T19:26:30.959Z,57.22
2019-03-24T19:28:59.389Z,57.33
2019-03-24T19:31:28.126Z,56.59
2019-03-24T19:33:57.193Z,57.01
2019-03-24T19:36:26.258Z,57.41
2019-03-24T19:38:55.427Z,57.70
2019-03-24T19:41:23.793Z,57.46
2019-03-24T19:43:51.915Z,57.33
2019-03-24T19:46:20.311Z,57.26
2019-03-24T19:48:49.886Z,57.62
2019-03-24T19:51:18.102Z,57.98
2019-03-24T19:53:46.356Z,57.65
2019-03-24T19:56:14.741Z,57.70
2019-03-24T19:58:43.198Z,57.73
2019-03-24T20:01:12.473Z,57.69
2019-03-24T20:03:43.442Z,57.88
2019-03-24T20:06:11.726Z,58.27
2019-03-24T20:08:39.834Z,58.31
2019-03-24T20:11:08.287Z,57.62
2019-03-24T20:13:36.531Z,58.95
2019-03-24T20:16:05.099Z,59.06
2019-03-24T20:18:33.563Z,58.36
2019-03-24T20:21:01.928Z,59.70
2019-03-24T20:23:30.228Z,58.71
2019-03-24T20:25:58.839Z,58.35
2019-03-24T20:28:27.574Z,58.48
2019-03-24T20:30:55.949Z,58.51
2019-03-24T20:33:24.463Z,57.91
2019-03-24T20:35:53.503Z,57.89
2019-03-24T20:38:21.733Z,57.48
2019-03-24T20:40:50.631Z,57.60
2019-03-24T20:43:19.043Z,56.93
2019-03-24T20:45:47.269Z,57.30
2019-03-24T20:48:16.001Z,59.20
2019-03-24T20:50:44.810Z,58.10
2019-03-24T20:53:18.329Z,58.23
2019-03-24T20:55:44.262Z,58.44
2019-03-24T20:58:13.278Z,58.62
2019-03-24T21:00:42.232Z,59.11
2019-03-24T21:03:11.205Z,59.36
2019-03-24T21:05:39.370Z,59.43
2019-03-24T21:08:08.052Z,60.53
2019-03-24T21:10:36.862Z,58.63
2019-03-24T21:13:05.489Z,59.17
2019-03-24T21:15:34.096Z,59.23
2019-03-24T21:18:02.715Z,58.94
2019-03-24T21:20:31.417Z,57.68
2019-03-24T21:23:00.047Z,59.26
2019-03-24T21:25:28.480Z,59.51
2019-03-24T21:27:57.710Z,59.02
2019-03-24T21:30:37.331Z,59.73
2019-03-24T21:33:06.679Z,58.70
2019-03-24T21:35:36.205Z,58.94
2019-03-24T21:38:05.348Z,60.00
2019-03-24T21:40:34.293Z,59.70
2019-03-24T21:43:02.827Z,58.95
2019-03-24T21:45:32.287Z,60.23
2019-03-24T21:48:01.147Z,60.36
2019-03-24T21:50:30.334Z,59.26
2019-03-24T21:52:59.297Z,60.37
2019-03-24T21:55:27.579Z,60.06
2019-03-24T21:57:57.893Z,59.17
2019-03-24T22:00:33.079Z,61.36
2019-03-24T22:03:01.160Z,60.18
2019-03-24T22:05:30.088Z,59.91
2019-03-24T22:07:59.406Z,60.55
2019-03-24T22:10:28.365Z,59.85
2019-03-24T22:12:56.717Z,59.56
2019-03-24T22:15:25.477Z,58.76
2019-03-24T22:17:53.918Z,60.38
2019-03-24T22:20:22.513Z,60.85
2019-03-24T22:22:50.683Z,59.44
2019-03-24T22:25:19.079Z,59.59
2019-03-24T22:27:47.807Z,59.92
2019-03-24T22:30:16.613Z,58.99
2019-03-24T22:32:45.196Z,58.70
2019-03-24T22:35:13.699Z,59.24
2019-03-24T22:37:42.192Z,60.43
2019-03-24T22:40:11.027Z,60.12
2019-03-24T22:42:40.170Z,58.90
2019-03-24T22:45:10.169Z,60.86
2019-03-24T22:47:38.428Z,60.54
2019-03-24T22:50:07.647Z,58.18
2019-03-24T22:52:36.255Z,58.40
2019-03-24T22:55:05.609Z,59.08
2019-03-24T22:57:34.173Z,61.21
2019-03-24T23:00:03.482Z,60.84
2019-03-24T23:02:31.562Z,59.65
2019-03-24T23:05:00.452Z,60.38
2019-03-24T23:07:28.986Z,60.78
2019-03-24T23:09:57.504Z,60.03
2019-03-24T23:12:25.870Z,59.85
2019-03-24T23:14:54.407Z,60.04
2019-03-24T23:17:23.153Z,58.71
2019-03-24T23:19:51.124Z,60.20
2019-03-24T23:22:19.617Z,59.79
2019-03-24T23:24:48.004Z,60.87
2019-03-24T23:27:16.377Z,61.00
2019-03-24T23:29:45.291Z,60.75
2019-03-24T23:32:13.529Z,59.56
2019-03-24T23:34:42.568Z,61.55
2019-03-24T23:37:11.208Z,59.14
2019-03-24T23:39:39.437Z,61.47
2019-03-24T23:42:07.794Z,61.84
2019-03-24T23:44:35.982Z,60.52
2019-03-24T23:47:04.142Z,61.62
2019-03-24T23:49:32.362Z,61.54
2019-03-24T23:52:01.029Z,61.60
2019-03-24T23:54:29.632Z,61.03
2019-03-24T23:56:58.948Z,60.94
2019-03-24T23:59:27.543Z,60.06
